createdAt,value
2023-05-12T00:04:33.770Z,6.10
2023-05-12T00:14:40.312Z,6.40
2023-05-12T00:24:46.802Z,6.60
2023-05-12T00:34:54.780Z,6.60
2023-05-12T00:45:01.275Z,6.30
2023-05-12T00:55:08.446Z,6.30
2023-05-12T01:05:15.356Z,6.60
2023-05-12T01:15:21.870Z,6.90
2023-05-12T01:25:30.464Z,7.70
2023-05-12T01:35:37.039Z,6.30
2023-05-12T01:45:43.521Z,6.50
2023-05-12T01:55:49.984Z,6.40
2023-05-12T02:05:56.546Z,6.50
2023-05-12T02:16:03.575Z,6.30
2023-05-12T02:26:10.136Z,6.30
2023-05-12T02:36:16.641Z,8.00
2023-05-12T02:46:23.161Z,8.70
2023-05-12T02:56:31.949Z,8.10
2023-05-12T03:06:40.436Z,6.80
2023-05-12T03:16:47.030Z,7.20
2023-05-12T03:26:53.566Z,7.50
2023-05-12T03:37:00.109Z,7.60
2023-05-12T03:47:06.940Z,7.50
2023-05-12T03:57:14.183Z,7.90
2023-05-12T04:07:20.746Z,7.20
2023-05-12T04:17:27.283Z,6.80
2023-05-12T04:27:33.822Z,7.70
2023-05-12T04:37:40.355Z,7.80
2023-05-12T04:47:47.027Z,8.20
2023-05-12T04:57:53.600Z,9.60
2023-05-12T05:08:00.135Z,6.60
2023-05-12T05:18:07.408Z,6.20
2023-05-12T05:28:13.952Z,6.50
2023-05-12T05:38:20.443Z,6.50
2023-05-12T05:48:27.131Z,6.40
2023-05-12T05:58:33.624Z,6.50
2023-05-12T06:08:40.212Z,5.70
2023-05-12T06:18:46.723Z,5.70
2023-05-12T06:28:53.265Z,5.50
2023-05-12T06:39:00.395Z,5.90
2023-05-12T06:49:07.693Z,6.00
2023-05-12T06:59:14.771Z,5.60
2023-05-12T07:09:21.579Z,5.50
2023-05-12T07:19:28.152Z,4.50
2023-05-12T07:29:34.648Z,4.90
2023-05-12T07:39:41.136Z,4.90
2023-05-12T07:49:48.166Z,4.70
2023-05-12T07:59:54.755Z,4.70
2023-05-12T08:10:01.279Z,4.00
2023-05-12T08:20:08.430Z,4.60
2023-05-12T08:30:15.215Z,4.70
2023-05-12T08:40:23.535Z,4.40
2023-05-12T08:50:31.301Z,4.60
2023-05-12T09:00:40.645Z,4.30
2023-05-12T09:10:48.412Z,4.50
2023-05-12T09:20:54.908Z,4.50
2023-05-12T09:31:01.372Z,4.60
2023-05-12T09:41:07.882Z,4.20
2023-05-12T09:51:19.456Z,3.70
2023-05-12T10:01:27.328Z,3.70
2023-05-12T10:11:34.026Z,3.40
2023-05-12T10:21:41.115Z,4.20
2023-05-12T10:31:48.311Z,4.20
2023-05-12T10:42:03.246Z,4.00
2023-05-12T10:52:12.636Z,3.90
2023-05-12T11:02:22.069Z,4.10
2023-05-12T11:12:31.197Z,3.90
2023-05-12T11:22:37.946Z,4.00
2023-05-12T11:32:45.100Z,4.70
2023-05-12T11:42:57.198Z,3.70
2023-05-12T11:53:03.741Z,3.70
2023-05-12T12:03:15.757Z,3.90
2023-05-12T12:13:26.380Z,4.20
2023-05-12T12:23:43.861Z,3.90
2023-05-12T12:33:54.196Z,3.60
2023-05-12T12:44:00.886Z,3.70
2023-05-12T12:54:07.364Z,4.20
2023-05-12T13:04:13.937Z,4.20
2023-05-12T13:14:20.706Z,3.50
2023-05-12T13:24:27.196Z,4.30
2023-05-12T13:34:33.633Z,4.40
2023-05-12T13:44:40.300Z,4.50
2023-05-12T13:54:46.812Z,4.00
2023-05-12T14:04:53.439Z,3.80
2023-05-12T14:15:11.167Z,4.00
2023-05-12T14:25:28.341Z,3.90
2023-05-12T14:35:34.813Z,4.30
2023-05-12T14:45:41.282Z,4.20
2023-05-12T14:55:48.572Z,4.10
2023-05-12T15:06:05.609Z,4.30
2023-05-12T15:16:13.718Z,3.80
2023-05-12T15:26:33.205Z,4.00
2023-05-12T15:36:41.265Z,5.00
2023-05-12T15:46:48.035Z,4.50
2023-05-12T15:56:54.664Z,4.00
2023-05-12T16:07:01.174Z,3.50
2023-05-12T16:17:07.755Z,4.30
2023-05-12T16:27:14.359Z,4.10
2023-05-12T16:37:20.966Z,3.70
2023-05-12T16:47:27.516Z,4.60
2023-05-12T16:57:34.070Z,4.50
2023-05-12T17:07:40.598Z,5.30
2023-05-12T17:17:47.175Z,3.90
2023-05-12T17:27:53.746Z,4.50
2023-05-12T17:38:00.269Z,4.20
2023-05-12T17:48:07.690Z,4.80
2023-05-12T17:58:13.288Z,4.40
2023-05-12T18:08:20.172Z,4.00
2023-05-12T18:18:27.608Z,4.50
2023-05-12T18:28:34.174Z,4.50
2023-05-12T18:38:40.814Z,4.80
2023-05-12T18:48:47.380Z,5.20
2023-05-12T18:58:53.908Z,5.40
2023-05-12T19:09:00.400Z,5.50
2023-05-12T19:19:07.403Z,6.00
2023-05-12T19:29:15.184Z,6.00
2023-05-12T19:39:21.664Z,5.20
2023-05-12T19:49:28.354Z,5.30
2023-05-12T19:59:34.859Z,5.10
2023-05-12T20:09:41.526Z,5.40
2023-05-12T20:19:48.108Z,5.50
2023-05-12T20:29:54.677Z,5.40
2023-05-12T20:40:01.197Z,5.30
2023-05-12T20:50:09.501Z,4.90
2023-05-12T21:00:16.312Z,5.60
2023-05-12T21:10:23.245Z,5.40
2023-05-12T21:20:29.914Z,5.50
2023-05-12T21:30:38.327Z,5.50
2023-05-12T21:40:44.899Z,5.40
2023-05-12T21:51:01.814Z,5.90
2023-05-12T22:01:08.432Z,5.20
2023-05-12T22:11:14.945Z,5.90
2023-05-12T22:21:21.495Z,5.50
2023-05-12T22:31:28.057Z,6.00
2023-05-12T22:41:34.526Z,7.40
2023-05-12T22:51:41.244Z,6.30
2023-05-12T23:01:48.186Z,7.40
2023-05-12T23:11:54.746Z,6.90
2023-05-12T23:22:01.355Z,6.90
2023-05-12T23:32:08.144Z,6.90
2023-05-12T23:42:14.752Z,6.70
2023-05-12T23:52:21.272Z,7.00
